Terminal Aerodrome Forecast
Issued by NWS Louisville, KY

Home | Current Version | Previous Version | Text Only | Print | Product List | Glossary On
Versions: 1 2 3 4 5 6 7 8 9 10 11 12 13 14 15 16 17 18
165
FTUS43 KLMK 111726
TAFBWG
TAF
KBWG 111726Z 1118/1218 05006KT P6SM SCT025 BKN250
      TEMPO 1118/1121 BKN025
     FM120000 04003KT P6SM OVC100
     FM120900 VRB03KT 5SM -SN BR BKN025
     FM121400 32005KT P6SM BKN020=

USA.gov is the U.S. government's official web portal to all federal, state and local government web resources and services.